Decoded Metar for GCGM (LA GOMERA in SPAIN) (IATA:N/A) | Meteo·Mobile Aviation Weather
aviador You're here:

GCGM Decoded Metar

LA GOMERA in SPAIN
Report Time2018-08-18 08:00:00
UTC Time2018-08-18 08:06:53
Flight Rules vfr VFR
Wind270° at 06 kt
W.Decomp.*RWY 27: 6.0 kt HW 0.6 kt RCW
W.Rank270° ranks 8
Current wind is below 270° avg. (7.1)
Visibility9999 m
Phenomena:N/A
Clouds:Few 030 Hf
Expected CloudBase > 2,400 ft AGL from Temp-Dew spread
CeilingNone
Temp22°C
Dew Point16°C (69% RH)
AAT21.8°C
QNH1017 hPa
Raw Report
METAR GCGM 180800Z 27006KT 9999 FEW030 22/16 Q1017 RMK
R09/27006KT ARP/28006KT 250V310=

Extra information for GCGM:More info

Metar Taf Metar & Taf Last 4 Metars F.Rules Stats Wind Profile Meteogram Temp Stats Airport Information Weather charts Add Link Nearby VenuesMetar ALERT Operation Metar Decoded Social comments